Time;durP1;ratioP1;P1;durP2;ratioP2;P2;SDS_P1;SDS_P2;PMS_P1;PMS_P2;Temp;Humidity;BMP_temperature;BMP_pressure;BME280_temperature;BME280_humidity;BME280_pressure;Samples;Min_cycle;Max_cycle;Signal;HPM_P1;HPM_P2
2021/09/14 00:01:32;;;;;;;3.08;1.02;;;;;;;10.40;52.21;101873.66;5029884;28;20064;-66
2021/09/14 00:03:57;;;;;;;4.78;1.40;;;;;;;10.32;52.33;101865.13;5036393;28;20052;-66
2021/09/14 00:06:25;;;;;;;4.55;2.15;;;;;;;10.19;52.65;101870.63;5036110;28;20102;-67
2021/09/14 00:08:50;;;;;;;3.42;1.58;;;;;;;10.13;52.75;101862.94;5033512;28;20454;-67
2021/09/14 00:11:16;;;;;;;2.30;1.40;;;;;;;10.11;53.07;101856.88;5033650;28;20152;-66
2021/09/14 00:13:41;;;;;;;3.45;1.85;;;;;;;10.25;52.58;101863.53;5035892;28;20967;-66
2021/09/14 00:16:07;;;;;;;1.58;1.27;;;;;;;10.29;52.65;101862.59;5035857;28;20128;-69
2021/09/14 00:18:32;;;;;;;4.50;1.20;;;;;;;10.42;52.23;101869.25;5039922;28;20076;-69
2021/09/14 00:20:58;;;;;;;1.58;1.30;;;;;;;10.38;52.10;101860.59;5032827;28;20033;-68
2021/09/14 00:23:23;;;;;;;1.98;1.38;;;;;;;10.43;52.06;101861.34;5035620;28;20106;-69
2021/09/14 00:25:48;;;;;;;1.90;1.08;;;;;;;10.35;52.05;101849.38;5037998;28;20082;-68
2021/09/14 00:28:14;;;;;;;3.60;1.30;;;;;;;10.21;52.07;101842.72;5034250;28;20515;-69
2021/09/14 00:30:40;;;;;;;3.38;0.82;;;;;;;10.24;51.98;101856.63;5038960;28;20037;-66
2021/09/14 00:33:06;;;;;;;2.33;0.93;;;;;;;10.24;52.02;101852.25;5033732;28;20082;-68
2021/09/14 00:35:31;;;;;;;5.32;1.25;;;;;;;10.16;52.26;101855.00;5033683;28;20400;-69
2021/09/14 00:37:56;;;;;;;3.55;1.55;;;;;;;10.15;52.19;101844.63;5041322;28;20075;-69
2021/09/14 00:40:22;;;;;;;3.13;1.27;;;;;;;10.19;52.32;101848.84;5035757;28;20566;-67
2021/09/14 00:42:47;;;;;;;3.67;1.30;;;;;;;10.16;51.99;101851.56;5031904;28;20029;-68
2021/09/14 00:45:13;;;;;;;4.43;1.40;;;;;;;10.08;52.48;101845.63;5052443;28;20059;-67
2021/09/14 00:47:38;;;;;;;3.78;1.73;;;;;;;9.96;52.77;101838.94;5040849;28;20119;-67
2021/09/14 00:50:06;;;;;;;4.38;1.40;;;;;;;9.90;52.66;101833.84;5032421;28;20036;-67
2021/09/14 00:52:33;;;;;;;2.30;1.60;;;;;;;9.84;53.06;101842.69;5039558;28;20497;-66
2021/09/14 00:54:59;;;;;;;4.45;2.78;;;;;;;9.78;53.19;101830.56;5034909;28;20044;-66
2021/09/14 00:57:24;;;;;;;5.30;1.50;;;;;;;9.74;53.30;101834.13;5044421;28;20034;-67
2021/09/14 00:59:50;;;;;;;2.45;1.65;;;;;;;9.70;53.39;101824.66;5035134;28;20040;-66
2021/09/14 01:02:18;;;;;;;3.13;1.60;;;;;;;9.67;53.66;101824.72;5020086;28;20123;-69
2021/09/14 01:04:44;;;;;;;5.20;2.35;;;;;;;9.67;53.75;101821.25;5040475;28;20033;-70
2021/09/14 01:07:09;;;;;;;2.25;1.30;;;;;;;9.66;53.55;101823.00;5053574;28;20485;-69
2021/09/14 01:09:37;;;;;;;4.40;1.23;;;;;;;9.66;53.91;101823.00;5033677;28;20052;-67
2021/09/14 01:12:03;;;;;;;3.10;1.50;;;;;;;9.82;53.39;101822.72;5032238;28;20036;-67
2021/09/14 01:14:29;;;;;;;3.13;1.30;;;;;;;9.85;53.08;101812.19;5049045;28;20033;-67
2021/09/14 01:16:55;;;;;;;2.17;1.23;;;;;;;9.93;53.05;101831.19;5036152;28;20036;-66
2021/09/14 01:19:20;;;;;;;1.52;0.85;;;;;;;9.88;53.12;101827.78;5043097;28;20059;-66
2021/09/14 01:21:46;;;;;;;5.43;1.30;;;;;;;9.87;53.15;101823.47;5037765;28;20033;-66
2021/09/14 01:24:15;;;;;;;1.90;0.80;;;;;;;9.89;53.13;101824.31;5040716;28;20047;-65
2021/09/14 01:26:52;;;;;;;2.33;0.95;;;;;;;9.85;52.87;101817.41;5042195;28;20049;-67
2021/09/14 01:32:08;;;;;;;1.73;1.08;;;;;;;9.63;53.07;101823.06;5055453;28;20040;-66
2021/09/14 01:34:34;;;;;;;1.30;0.60;;;;;;;9.67;53.29;101816.88;5041840;28;20819;-67
2021/09/14 01:37:01;;;;;;;3.13;0.57;;;;;;;9.71;53.49;101826.38;5044577;28;20039;-66
2021/09/14 01:39:26;;;;;;;4.57;0.80;;;;;;;9.75;53.36;101816.75;5037751;28;20033;-67
2021/09/14 01:41:57;;;;;;;6.00;1.30;;;;;;;9.74;53.13;101823.69;5041649;28;20032;-67
2021/09/14 01:44:25;;;;;;;1.45;0.93;;;;;;;9.72;53.19;101828.09;5037644;28;20029;-67
2021/09/14 01:46:52;;;;;;;2.17;1.10;;;;;;;9.79;52.73;101824.50;5038882;28;20728;-73
2021/09/14 01:49:18;;;;;;;1.25;0.75;;;;;;;9.77;52.55;101836.69;5030309;28;20941;-72
2021/09/14 01:51:45;;;;;;;3.38;1.25;;;;;;;9.72;52.66;101822.00;5047035;28;20045;-73
2021/09/14 01:54:11;;;;;;;3.67;1.55;;;;;;;9.66;53.03;101827.38;5052788;28;20506;-73
2021/09/14 01:56:38;;;;;;;2.78;1.40;;;;;;;9.60;52.97;101838.78;5044089;28;20079;-73
2021/09/14 01:59:04;;;;;;;2.03;1.13;;;;;;;9.54;53.24;101839.78;5054470;28;20028;-73
2021/09/14 02:01:39;;;;;;;3.58;1.40;;;;;;;9.48;52.98;101842.53;5036866;28;20029;-74
2021/09/14 02:23:49;;;;;;;3.08;0.90;;;;;;;9.34;52.89;101844.53;5043978;28;20094;-68
2021/09/14 02:58:55;;;;;;;0.60;0.30;;;;;;;9.24;52.95;101825.59;5036382;28;20036;-70
2021/09/14 03:01:22;;;;;;;1.00;0.38;;;;;;;9.30;53.08;101828.09;5041219;28;20045;-71
2021/09/14 03:03:49;;;;;;;0.77;0.47;;;;;;;9.30;52.90;101824.63;5023580;28;20392;-70
2021/09/14 03:06:18;;;;;;;1.40;0.40;;;;;;;9.36;52.64;101833.16;5033114;28;20382;-70
2021/09/14 03:08:44;;;;;;;1.20;0.52;;;;;;;9.38;52.63;101834.00;5035190;28;20308;-70
2021/09/14 03:11:15;;;;;;;1.90;0.50;;;;;;;9.33;52.72;101830.63;5036825;28;20033;-67
2021/09/14 03:13:49;;;;;;;1.13;0.50;;;;;;;9.28;52.39;101824.66;5052369;28;20075;-67
2021/09/14 03:16:15;;;;;;;1.52;0.35;;;;;;;9.31;52.60;101819.34;5043167;28;20029;-65
2021/09/14 03:18:41;;;;;;;1.13;0.38;;;;;;;9.25;52.72;101831.66;5055325;28;20248;-66
2021/09/14 03:21:08;;;;;;;0.70;0.30;;;;;;;9.23;52.46;101834.31;5036010;28;20142;-66
2021/09/14 03:23:34;;;;;;;1.42;0.50;;;;;;;9.19;52.67;101832.66;5054653;28;20059;-68
2021/09/14 03:26:02;;;;;;;1.25;0.40;;;;;;;9.14;52.86;101824.03;5034552;28;20120;-67
2021/09/14 03:28:29;;;;;;;1.35;0.70;;;;;;;9.14;52.84;101827.53;5019701;28;20033;-66
2021/09/14 03:30:55;;;;;;;3.97;0.60;;;;;;;9.14;52.74;101830.13;5033543;28;20036;-67
2021/09/14 03:33:22;;;;;;;2.72;0.40;;;;;;;9.12;52.91;101833.63;5036965;28;20333;-67
2021/09/14 03:35:47;;;;;;;1.17;0.30;;;;;;;9.05;52.89;101834.63;5039343;28;20466;-67
2021/09/14 03:38:13;;;;;;;1.17;0.70;;;;;;;9.02;53.07;101824.28;5033801;28;20036;-66
2021/09/14 03:40:39;;;;;;;1.40;0.60;;;;;;;9.06;52.72;101820.72;5034285;28;20029;-67
2021/09/14 03:43:06;;;;;;;1.08;0.70;;;;;;;9.00;52.99;101826.03;5044032;28;20393;-70
2021/09/14 03:45:32;;;;;;;1.25;0.55;;;;;;;9.04;52.99;101827.72;5050112;28;20433;-69
2021/09/14 03:47:58;;;;;;;1.20;0.20;;;;;;;9.06;52.74;101825.94;5034487;28;20056;-69
2021/09/14 03:50:24;;;;;;;1.02;0.50;;;;;;;9.08;52.83;101813.75;5040241;28;20453;-69
2021/09/14 03:52:50;;;;;;;1.30;0.50;;;;;;;9.06;52.79;101815.50;5041233;28;20103;-70
2021/09/14 03:55:16;;;;;;;1.95;0.40;;;;;;;9.07;52.96;101812.84;5036484;28;20055;-66
2021/09/14 03:57:46;;;;;;;1.00;0.32;;;;;;;9.03;52.82;101808.59;5053305;28;20049;-67
2021/09/14 04:00:13;;;;;;;1.50;0.35;;;;;;;9.04;52.35;101806.84;5036556;28;20131;-69
2021/09/14 04:03:00;;;;;;;1.58;0.55;;;;;;;9.04;52.73;101812.06;5034774;28;20039;-68
2021/09/14 04:08:50;;;;;;;1.83;0.38;;;;;;;9.08;52.33;101798.09;5051577;28;20036;-69
2021/09/14 04:10:43;;;;;;;2.88;0.40;;;;;;;9.09;52.13;101787.59;5039758;28;20498;-68
2021/09/14 04:13:11;;;;;;;1.02;0.47;;;;;;;9.07;52.48;101786.78;5036860;28;20056;-68
2021/09/14 04:15:37;;;;;;;0.85;0.25;;;;;;;9.08;52.43;101787.66;5034926;28;20037;-67
2021/09/14 04:18:09;;;;;;;0.82;0.35;;;;;;;9.07;52.22;101785.91;5039691;28;20040;-67
2021/09/14 04:20:35;;;;;;;3.42;0.68;;;;;;;9.00;52.36;101789.53;5049694;28;20029;-68
2021/09/14 04:23:01;;;;;;;1.67;0.68;;;;;;;8.96;52.78;101793.94;5041980;28;20031;-69
2021/09/14 04:25:26;;;;;;;5.68;1.20;;;;;;;8.95;52.60;101787.88;5035715;28;20021;-69
2021/09/14 04:27:52;;;;;;;3.92;0.43;;;;;;;9.03;52.24;101787.75;5040468;28;20482;-64
2021/09/14 04:30:17;;;;;;;1.33;0.50;;;;;;;9.03;52.54;101789.47;5016631;28;20033;-65
2021/09/14 04:32:45;;;;;;;2.47;0.40;;;;;;;9.08;52.41;101792.88;5032959;28;20041;-64
2021/09/14 04:35:11;;;;;;;1.95;0.47;;;;;;;9.07;52.22;101791.13;5051058;28;20041;-65
2021/09/14 04:37:37;;;;;;;1.55;0.55;;;;;;;9.05;52.31;101780.72;5034647;28;20036;-64
2021/09/14 04:40:04;;;;;;;3.10;0.50;;;;;;;9.05;52.10;101785.94;5050941;28;20037;-64
2021/09/14 04:42:29;;;;;;;2.85;1.05;;;;;;;9.04;52.17;101791.22;5035437;28;20033;-64
2021/09/14 04:44:55;;;;;;;1.23;0.52;;;;;;;9.13;52.22;101786.66;5033856;28;20673;-68
2021/09/14 04:47:21;;;;;;;6.47;0.85;;;;;;;9.13;52.04;101783.19;5039476;28;20064;-67
2021/09/14 04:49:47;;;;;;;1.38;0.55;;;;;;;9.14;51.86;101782.31;5038892;28;20045;-67
2021/09/14 04:52:12;;;;;;;1.75;0.65;;;;;;;9.10;51.63;101780.66;5032182;28;20021;-67
2021/09/14 04:54:39;;;;;;;1.50;0.50;;;;;;;9.09;51.95;101781.53;5039559;28;20041;-67
2021/09/14 04:57:04;;;;;;;2.97;0.80;;;;;;;9.08;51.91;101779.84;5031433;28;20029;-66
2021/09/14 04:59:31;;;;;;;1.02;0.52;;;;;;;9.12;51.77;101773.66;5034744;28;20029;-68
2021/09/14 05:01:59;;;;;;;2.90;0.70;;;;;;;9.14;51.64;101771.88;5038152;28;20124;-67
2021/09/14 05:04:25;;;;;;;1.17;0.60;;;;;;;9.10;51.91;101778.91;5035097;28;20030;-68
2021/09/14 05:06:50;;;;;;;1.73;0.68;;;;;;;9.07;52.18;101770.28;5040076;28;20040;-67
2021/09/14 05:09:16;;;;;;;3.28;0.50;;;;;;;9.07;52.05;101767.66;5043300;28;20032;-66
2021/09/14 05:11:46;;;;;;;2.67;0.60;;;;;;;9.13;52.10;101762.34;5043866;28;20509;-66
2021/09/14 05:14:15;;;;;;;4.30;1.20;;;;;;;9.17;52.08;101772.69;5035868;28;20037;-66
2021/09/14 05:16:59;;;;;;;4.90;1.40;;;;;;;9.19;51.78;101770.06;5039788;28;20087;-69
2021/09/14 05:19:38;;;;;;;2.88;1.00;;;;;;;9.23;51.74;101768.22;5038333;28;20021;-70
2021/09/14 05:22:04;;;;;;;2.13;0.60;;;;;;;9.32;51.88;101766.31;5042946;28;20098;-72
2021/09/14 05:24:32;;;;;;;2.53;1.10;;;;;;;9.40;51.47;101766.97;5029940;28;20046;-71
2021/09/14 05:26:58;;;;;;;2.53;1.55;;;;;;;9.53;51.09;101764.13;5035210;28;20090;-72
2021/09/14 05:29:26;;;;;;;4.43;1.20;;;;;;;9.67;50.78;101762.06;5036753;28;20037;-70
2021/09/14 05:31:54;;;;;;;1.48;0.70;;;;;;;9.75;50.86;101762.78;5044367;28;20163;-70
2021/09/14 05:34:21;;;;;;;3.38;1.15;;;;;;;9.85;50.67;101765.19;5036827;28;20041;-71
2021/09/14 05:36:49;;;;;;;1.92;0.95;;;;;;;9.96;50.89;101757.97;5037360;28;20030;-71
2021/09/14 05:39:15;;;;;;;2.85;1.20;;;;;;;10.03;50.70;101762.16;5044078;28;20056;-72
2021/09/14 05:41:41;;;;;;;1.92;0.73;;;;;;;10.06;50.61;101764.72;5020898;28;20516;-73
2021/09/14 05:44:09;;;;;;;6.63;1.25;;;;;;;10.11;50.61;101760.22;5054085;28;20540;-73
2021/09/14 05:46:37;;;;;;;5.57;0.68;;;;;;;10.24;50.63;101752.97;5027874;28;20131;-73
2021/09/14 05:49:02;;;;;;;3.20;0.90;;;;;;;10.31;50.21;101754.53;5027369;28;20036;-70
2021/09/14 05:51:30;;;;;;;2.35;0.75;;;;;;;10.40;50.28;101749.06;5019524;28;20032;-70
2021/09/14 05:53:59;;;;;;;4.80;1.50;;;;;;;10.54;50.42;101756.53;5044684;28;20120;-71
2021/09/14 05:56:30;;;;;;;4.10;1.02;;;;;;;11.18;50.40;101747.88;5051723;28;20040;-69
2021/09/14 05:59:01;;;;;;;2.25;1.38;;;;;;;13.43;47.13;101747.44;5039802;28;20031;-67
2021/09/14 06:01:28;;;;;;;4.05;1.70;;;;;;;15.51;41.52;101747.44;5053658;28;20029;-66
2021/09/14 06:03:54;;;;;;;2.25;1.13;;;;;;;17.26;38.35;101737.75;5041125;28;20231;-68
2021/09/14 06:06:22;;;;;;;3.10;1.35;;;;;;;18.85;34.69;101743.56;5038871;28;20631;-67
2021/09/14 06:08:48;;;;;;;5.72;1.45;;;;;;;19.61;32.39;101742.34;5053808;28;20289;-67
2021/09/14 06:11:16;;;;;;;1.80;0.80;;;;;;;20.52;30.83;101745.16;5022649;28;20402;-67
2021/09/14 06:13:43;;;;;;;4.65;1.17;;;;;;;21.36;29.72;101745.50;5041701;28;20405;-68
2021/09/14 06:16:13;;;;;;;2.35;1.08;;;;;;;21.98;28.80;101750.69;5040027;28;20055;-67
2021/09/14 06:18:39;;;;;;;2.22;0.90;;;;;;;22.87;26.38;101752.84;5050674;28;20099;-68
2021/09/14 06:21:06;;;;;;;2.85;1.33;;;;;;;23.53;25.23;101755.59;5034218;28;20244;-68
2021/09/14 06:23:33;;;;;;;4.35;1.50;;;;;;;23.79;25.57;101756.97;5039745;28;20037;-68
2021/09/14 06:26:03;;;;;;;3.15;1.10;;;;;;;23.89;25.74;101748.22;5034150;28;20037;-67
2021/09/14 06:28:30;;;;;;;3.85;1.20;;;;;;;24.58;24.55;101729.88;5041667;28;20041;-68
2021/09/14 06:30:55;;;;;;;3.97;1.02;;;;;;;25.31;23.91;101731.53;5041839;28;20516;-68
2021/09/14 06:33:25;;;;;;;3.88;1.92;;;;;;;25.65;24.27;101721.34;5035636;28;20402;-68
2021/09/14 06:35:52;;;;;;;4.20;1.30;;;;;;;26.14;22.44;101724.00;5034982;28;20124;-68
2021/09/14 06:38:24;;;;;;;2.35;1.15;;;;;;;26.50;22.27;101735.75;5034125;28;20307;-67
2021/09/14 06:40:51;;;;;;;4.57;0.80;;;;;;;26.54;23.23;101731.81;5037659;28;20067;-67
2021/09/14 06:43:20;;;;;;;2.60;0.82;;;;;;;27.27;22.79;101729.25;5020058;28;20026;-67
2021/09/14 06:46:05;;;;;;;2.42;1.10;;;;;;;27.83;21.68;101719.22;5035593;28;20088;-68
2021/09/14 06:48:33;;;;;;;2.83;0.60;;;;;;;28.19;21.23;101724.56;5037327;28;20503;-67
2021/09/14 06:50:59;;;;;;;3.22;0.80;;;;;;;28.38;20.76;101720.78;5033630;28;20032;-68
2021/09/14 06:53:28;;;;;;;2.58;0.82;;;;;;;28.08;21.04;101711.34;5037534;28;20520;-67
2021/09/14 06:55:54;;;;;;;1.50;0.40;;;;;;;28.56;20.38;101707.25;5033429;28;20107;-68
2021/09/14 06:58:19;;;;;;;4.63;1.65;;;;;;;28.26;20.50;101704.09;5036950;28;20500;-68
2021/09/14 07:00:45;;;;;;;2.97;1.23;;;;;;;27.68;22.19;101713.53;5054359;28;20034;-68
2021/09/14 07:03:10;;;;;;;1.55;0.52;;;;;;;26.82;23.52;101710.41;5038137;28;20031;-68
2021/09/14 07:05:36;;;;;;;4.38;0.90;;;;;;;27.32;22.28;101699.25;5037449;28;20044;-68
2021/09/14 07:08:01;;;;;;;4.40;0.60;;;;;;;27.00;22.15;101711.28;5037209;28;20029;-68
2021/09/14 07:10:27;;;;;;;5.32;0.85;;;;;;;26.23;23.83;101707.91;5038340;28;20042;-67
2021/09/14 07:12:54;;;;;;;4.43;0.77;;;;;;;25.61;24.40;101703.88;5037679;28;20389;-68
2021/09/14 07:15:20;;;;;;;2.80;0.63;;;;;;;25.79;23.84;101702.16;5036496;28;20025;-68
2021/09/14 07:17:48;;;;;;;2.40;0.50;;;;;;;25.52;24.20;101708.22;5036400;28;20029;-69
2021/09/14 07:20:14;;;;;;;2.50;0.60;;;;;;;25.53;23.76;101714.41;5027372;28;20044;-68
2021/09/14 07:22:40;;;;;;;4.50;0.60;;;;;;;25.62;24.96;101713.56;5035843;28;20385;-68
2021/09/14 07:25:06;;;;;;;3.05;0.68;;;;;;;25.73;23.86;101721.47;5038714;28;20035;-70
2021/09/14 07:27:32;;;;;;;1.65;0.90;;;;;;;25.57;24.27;101710.47;5037113;28;20033;-68
2021/09/14 07:29:58;;;;;;;6.50;0.75;;;;;;;25.87;23.85;101707.66;5037458;28;20044;-68
2021/09/14 07:32:23;;;;;;;1.33;0.50;;;;;;;26.14;23.53;101708.78;5035627;28;20564;-68
2021/09/14 07:34:51;;;;;;;3.88;0.65;;;;;;;25.86;23.49;101703.28;5035241;28;20036;-69
2021/09/14 07:37:17;;;;;;;2.28;0.63;;;;;;;25.91;25.36;101707.38;5034527;28;20029;-68
2021/09/14 07:39:42;;;;;;;1.40;0.63;;;;;;;27.11;24.17;101708.41;5035539;28;20559;-68
2021/09/14 07:42:08;;;;;;;4.90;0.40;;;;;;;28.01;21.96;101703.06;5035678;28;20037;-69
2021/09/14 07:44:34;;;;;;;4.72;0.65;;;;;;;28.98;20.85;101697.56;5035112;28;20076;-69
2021/09/14 07:47:04;;;;;;;3.17;1.08;;;;;;;28.87;20.70;101706.75;5033948;28;21189;-67
2021/09/14 07:49:29;;;;;;;1.90;0.68;;;;;;;28.28;21.86;101703.94;5034402;28;20413;-68
2021/09/14 07:51:55;;;;;;;3.22;0.50;;;;;;;28.59;21.47;101693.53;5037478;28;20047;-67
2021/09/14 07:54:20;;;;;;;3.92;0.50;;;;;;;27.85;23.32;101698.41;5038464;28;20048;-68
2021/09/14 07:56:46;;;;;;;4.00;0.82;;;;;;;27.58;22.32;101699.31;5037104;28;20485;-68
2021/09/14 07:59:12;;;;;;;5.00;0.52;;;;;;;26.34;23.52;101698.84;5036697;28;20571;-67
2021/09/14 08:01:39;;;;;;;3.65;0.65;;;;;;;25.86;24.73;101700.59;5043184;28;20037;-68
2021/09/14 08:04:05;;;;;;;2.20;0.50;;;;;;;25.90;24.80;101705.69;5036753;28;20032;-68
2021/09/14 08:06:33;;;;;;;2.15;0.70;;;;;;;25.57;25.24;101710.47;5036143;28;20481;-69
2021/09/14 08:08:58;;;;;;;3.60;0.80;;;;;;;25.99;24.56;101711.03;5041867;28;20398;-68
2021/09/14 08:11:23;;;;;;;2.05;0.52;;;;;;;26.73;23.97;101713.97;5036179;28;20034;-66
2021/09/14 08:13:50;;;;;;;3.80;0.57;;;;;;;27.02;24.14;101711.97;5037269;28;20123;-67
2021/09/14 08:16:16;;;;;;;2.85;0.50;;;;;;;27.08;23.12;101706.00;5035288;28;20051;-67
2021/09/14 08:18:43;;;;;;;4.15;0.60;;;;;;;27.02;23.78;101703.94;5024479;28;20036;-67
2021/09/14 08:21:09;;;;;;;2.80;0.68;;;;;;;26.90;23.77;101710.50;5036212;28;20033;-68
2021/09/14 08:23:35;;;;;;;1.67;0.47;;;;;;;25.71;26.34;101717.25;5034306;28;20033;-68
2021/09/14 08:26:01;;;;;;;3.08;0.63;;;;;;;26.51;24.93;101721.34;5032667;28;20043;-68
2021/09/14 08:28:28;;;;;;;3.72;0.50;;;;;;;26.83;24.94;101725.50;5035594;28;20033;-67
2021/09/14 08:30:56;;;;;;;6.85;0.80;;;;;;;26.85;24.28;101718.16;5034744;28;20114;-68
2021/09/14 08:33:23;;;;;;;4.28;0.77;;;;;;;26.99;24.95;101720.34;5051695;28;20601;-68
2021/09/14 08:35:48;;;;;;;3.30;0.70;;;;;;;27.20;23.74;101721.94;5032809;28;20028;-68
2021/09/14 08:38:14;;;;;;;2.42;1.30;;;;;;;26.21;25.23;101719.75;5034271;28;20036;-68
2021/09/14 08:40:42;;;;;;;2.67;1.10;;;;;;;25.44;26.03;101706.22;5034995;28;20033;-68
2021/09/14 08:43:12;;;;;;;4.70;1.42;;;;;;;24.68;27.12;101719.22;5025674;28;20047;-69
2021/09/14 08:45:38;;;;;;;2.80;0.93;;;;;;;24.72;27.26;101720.63;5039975;28;20493;-67
2021/09/14 08:48:05;;;;;;;3.47;0.98;;;;;;;25.10;27.24;101713.75;5036613;28;20025;-69
2021/09/14 08:50:31;;;;;;;2.88;1.00;;;;;;;24.47;28.27;101710.41;5033786;28;20163;-66
2021/09/14 08:52:57;;;;;;;6.95;1.27;;;;;;;23.47;29.52;101724.09;5037047;28;20036;-66
2021/09/14 08:55:22;;;;;;;3.65;0.93;;;;;;;23.40;30.21;101716.56;5035659;28;20047;-65
2021/09/14 08:57:50;;;;;;;6.18;1.50;;;;;;;23.06;30.14;101721.09;5038363;28;20493;-66
2021/09/14 09:00:16;;;;;;;4.85;1.83;;;;;;;23.50;29.60;101721.16;5050494;28;20029;-67
2021/09/14 09:02:53;;;;;;;8.65;1.75;;;;;;;23.19;30.75;101724.47;5030936;28;20025;-67
2021/09/14 09:05:38;;;;;;;3.67;1.40;;;;;;;23.28;30.32;101722.94;5037760;28;20045;-66
2021/09/14 09:08:17;;;;;;;2.85;2.13;;;;;;;23.47;30.13;101724.09;5036961;28;20033;-67
2021/09/14 09:10:42;;;;;;;6.72;1.83;;;;;;;23.57;30.05;101727.69;5038795;28;20216;-67
2021/09/14 09:13:08;;;;;;;8.23;2.78;;;;;;;23.53;30.45;101731.59;5037080;28;20115;-66
2021/09/14 09:15:33;;;;;;;6.60;3.08;;;;;;;23.03;30.84;101733.81;5036965;28;20044;-70
2021/09/14 09:18:11;;;;;;;4.60;2.50;;;;;;;23.11;31.00;101731.41;5037216;28;20509;-68
2021/09/14 09:20:40;;;;;;;4.72;2.50;;;;;;;23.24;30.03;101732.13;5034543;28;20048;-66
2021/09/14 09:23:10;;;;;;;3.38;2.78;;;;;;;22.79;31.71;101732.16;5037602;28;20053;-67
2021/09/14 09:25:39;;;;;;;5.00;2.40;;;;;;;22.54;31.14;101726.06;5039341;28;20037;-68
2021/09/14 09:28:16;;;;;;;8.95;3.08;;;;;;;22.30;32.10;101730.63;5033188;28;20037;-68
2021/09/14 09:30:53;;;;;;;3.55;2.08;;;;;;;22.43;30.99;101726.03;5036763;28;20036;-67
2021/09/14 09:33:24;;;;;;;5.75;2.92;;;;;;;22.82;31.32;101721.25;5051415;28;20032;-68
2021/09/14 09:35:49;;;;;;;6.28;3.03;;;;;;;23.03;31.56;101724.03;5035908;28;20029;-67
2021/09/14 09:38:15;;;;;;;4.93;2.13;;;;;;;23.19;31.27;101716.47;5035961;28;20091;-67
2021/09/14 09:40:43;;;;;;;5.15;2.58;;;;;;;22.45;31.76;101715.25;5034172;28;20052;-66
2021/09/14 09:43:11;;;;;;;4.68;2.60;;;;;;;22.70;31.97;101720.41;5038921;28;20029;-67
2021/09/14 09:45:45;;;;;;;9.27;2.65;;;;;;;22.55;32.34;101717.09;5035367;28;20030;-67
2021/09/14 09:48:15;;;;;;;7.88;2.72;;;;;;;22.87;31.89;101718.22;5036265;28;20037;-67
2021/09/14 09:50:41;;;;;;;3.58;3.25;;;;;;;22.02;32.62;101710.53;5033596;28;20063;-67
2021/09/14 09:53:09;;;;;;;6.28;2.55;;;;;;;21.96;33.13;101702.06;5037701;28;20040;-67
2021/09/14 09:55:36;;;;;;;9.05;2.60;;;;;;;22.46;32.64;101703.66;5043891;28;20021;-67
2021/09/14 09:58:05;;;;;;;6.53;3.33;;;;;;;22.57;33.27;101696.50;5038788;28;20024;-67
2021/09/14 10:00:34;;;;;;;10.73;2.15;;;;;;;22.52;31.77;101696.03;5043240;28;20029;-67
2021/09/14 10:03:08;;;;;;;4.00;2.20;;;;;;;22.09;32.41;101699.34;5039056;28;20390;-68
2021/09/14 10:05:39;;;;;;;4.53;1.40;;;;;;;22.17;32.13;101694.28;5055762;28;20139;-68
2021/09/14 10:08:10;;;;;;;3.85;1.27;;;;;;;22.85;32.84;101704.16;5039936;28;20037;-68
2021/09/14 10:10:38;;;;;;;4.97;1.58;;;;;;;23.50;30.64;101686.47;5038133;28;20029;-67
2021/09/14 10:13:05;;;;;;;3.15;1.98;;;;;;;24.26;30.19;101681.00;5044430;28;20029;-67
2021/09/14 10:15:47;;;;;;;2.78;1.20;;;;;;;23.85;29.11;101682.69;5039781;28;20486;-67
2021/09/14 10:18:12;;;;;;;10.20;1.98;;;;;;;23.42;29.34;101666.63;5038627;28;20512;-67
2021/09/14 10:20:43;;;;;;;4.15;1.88;;;;;;;23.21;31.09;101673.69;5036791;28;20060;-66
2021/09/14 10:23:16;;;;;;;6.13;1.55;;;;;;;22.77;30.32;101668.31;5044836;28;20025;-68
2021/09/14 10:25:45;;;;;;;4.47;1.85;;;;;;;22.86;30.91;101661.41;5037911;28;20037;-67
2021/09/14 10:28:13;;;;;;;4.88;2.10;;;;;;;22.15;32.08;101658.94;5038637;28;20037;-67
2021/09/14 10:30:40;;;;;;;2.88;2.17;;;;;;;22.51;31.91;101651.69;5053699;28;20064;-67
2021/09/14 10:33:17;;;;;;;3.95;2.25;;;;;;;22.55;32.01;101645.16;5035081;28;20037;-66
2021/09/14 10:35:45;;;;;;;2.58;1.42;;;;;;;22.63;30.02;101649.03;5037362;28;20029;-67
2021/09/14 10:38:13;;;;;;;5.57;1.50;;;;;;;22.84;30.63;101639.34;5037080;28;20041;-66
2021/09/14 10:40:49;;;;;;;4.40;1.27;;;;;;;22.57;30.90;101640.56;5036744;28;20033;-69
2021/09/14 10:43:32;;;;;;;6.82;1.13;;;;;;;22.67;30.23;101637.16;5039831;28;20037;-67
2021/09/14 10:45:59;;;;;;;6.22;1.45;;;;;;;22.72;29.75;101629.69;5037034;28;20128;-67
2021/09/14 10:48:28;;;;;;;3.92;1.60;;;;;;;22.95;29.95;101626.00;5036490;28;20037;-67
2021/09/14 10:50:58;;;;;;;8.00;2.22;;;;;;;23.08;30.77;101630.34;5035957;28;20037;-68
2021/09/14 10:53:27;;;;;;;5.57;2.25;;;;;;;23.13;30.29;101623.66;5041066;28;20025;-67
2021/09/14 10:55:54;;;;;;;4.45;1.98;;;;;;;23.05;29.52;101631.41;5041045;28;20473;-68
2021/09/14 10:58:20;;;;;;;4.93;1.98;;;;;;;23.19;29.58;101630.31;5037780;28;20044;-68
2021/09/14 11:00:48;;;;;;;4.63;2.38;;;;;;;23.34;30.46;101629.09;5037222;28;20033;-68
2021/09/14 11:03:18;;;;;;;5.07;2.47;;;;;;;23.90;28.51;101627.97;5035726;28;20029;-68
2021/09/14 11:05:53;;;;;;;4.38;2.55;;;;;;;23.54;29.09;101618.53;5032238;28;20033;-69
2021/09/14 11:08:24;;;;;;;4.40;3.13;;;;;;;22.59;31.04;101627.13;5037919;28;20456;-68
2021/09/14 11:10:55;;;;;;;4.35;2.45;;;;;;;22.80;31.19;101621.91;5024913;28;20029;-68
2021/09/14 11:13:27;;;;;;;4.80;3.10;;;;;;;23.29;30.83;101617.94;5037601;28;20033;-68
2021/09/14 11:16:01;;;;;;;5.38;3.55;;;;;;;23.38;29.68;101622.50;5041204;28;20055;-68
2021/09/14 11:18:29;;;;;;;5.43;2.53;;;;;;;23.12;30.49;101618.44;5037062;28;20045;-68
2021/09/14 11:21:01;;;;;;;3.75;2.20;;;;;;;22.50;31.55;101620.72;5036915;28;20091;-69
2021/09/14 11:23:27;;;;;;;2.63;2.17;;;;;;;22.27;31.83;101632.31;5036701;28;20064;-69
2021/09/14 11:25:56;;;;;;;2.42;2.03;;;;;;;22.57;31.84;101632.56;5034711;28;20075;-67
2021/09/14 11:28:22;;;;;;;5.97;2.58;;;;;;;22.44;31.38;101631.84;5033629;28;20481;-68
2021/09/14 11:30:59;;;;;;;6.68;2.67;;;;;;;22.59;31.25;101635.13;5038595;28;20116;-66
2021/09/14 11:33:27;;;;;;;6.30;3.13;;;;;;;23.17;30.98;101629.59;5032506;28;20134;-67
2021/09/14 11:35:55;;;;;;;3.40;1.35;;;;;;;23.48;30.34;101638.59;5032851;28;20406;-68
2021/09/14 11:38:23;;;;;;;4.32;1.95;;;;;;;23.60;30.73;101636.72;5051938;28;20057;-67
2021/09/14 11:40:51;;;;;;;4.82;2.03;;;;;;;23.72;30.56;101629.50;5032923;28;20033;-68
2021/09/14 11:43:26;;;;;;;4.93;2.53;;;;;;;23.72;30.06;101637.50;5033542;28;20496;-67
2021/09/14 11:45:53;;;;;;;4.20;1.77;;;;;;;23.89;30.12;101631.59;5020250;28;20033;-67
2021/09/14 11:48:37;;;;;;;4.78;2.28;;;;;;;24.03;29.43;101622.41;5051212;28;20435;-66
2021/09/14 11:51:08;;;;;;;5.53;3.03;;;;;;;23.81;29.61;101621.56;5032163;28;20045;-66
2021/09/14 11:53:34;;;;;;;;;;;;;;;24.09;29.99;101605.03;5034050;28;20489;-67
2021/09/14 11:56:09;;;;;;;2.92;1.40;;;;;;;22.99;30.63;101616.78;5034069;28;19916;-67
2021/09/14 11:58:36;;;;;;;3.03;1.92;;;;;;;23.03;31.89;101630.72;5034300;28;20037;-67
2021/09/14 12:01:07;;;;;;;3.58;1.55;;;;;;;23.43;31.48;101619.44;5033233;28;20033;-69
2021/09/14 12:03:36;;;;;;;4.15;2.33;;;;;;;22.91;31.07;101621.88;5034061;28;20527;-67
2021/09/14 12:06:03;;;;;;;2.78;2.13;;;;;;;22.53;32.06;101615.13;5032202;28;20114;-68
2021/09/14 12:08:31;;;;;;;4.75;2.55;;;;;;;22.83;31.45;101603.03;5031062;28;20113;-66
2021/09/14 12:10:58;;;;;;;4.18;1.70;;;;;;;22.98;31.94;101598.25;5033461;28;20180;-67
2021/09/14 12:13:24;;;;;;;4.45;2.03;;;;;;;22.90;31.84;101601.56;5034129;28;20398;-67
2021/09/14 12:16:04;;;;;;;2.30;2.00;;;;;;;23.24;30.90;101590.78;5031763;28;20037;-68
2021/09/14 12:18:30;;;;;;;2.85;2.35;;;;;;;23.28;31.12;101592.25;5034501;28;20132;-68
2021/09/14 12:20:58;;;;;;;2.60;2.40;;;;;;;23.68;30.42;101585.34;5036548;28;20044;-67
2021/09/14 12:23:23;;;;;;;4.63;2.85;;;;;;;23.78;29.69;101578.25;5033200;28;20033;-66
2021/09/14 12:25:52;;;;;;;3.97;2.05;;;;;;;23.76;30.08;101573.06;5034544;28;20041;-68
2021/09/14 12:28:17;;;;;;;2.90;2.05;;;;;;;24.09;30.28;101568.47;5047927;28;20194;-66
2021/09/14 12:30:45;;;;;;;6.18;2.40;;;;;;;24.20;29.77;101557.72;5031713;28;20549;-68